Time;durP1;ratioP1;P1;durP2;ratioP2;P2;SDS_P1;SDS_P2;PMS_P1;PMS_P2;Temp;Humidity;BMP_temperature;BMP_pressure;BME280_temperature;BME280_humidity;BME280_pressure;Samples;Min_cycle;Max_cycle;Signal;HPM_P1;HPM_P2
2023/10/27 00:01:15;;;;;;;1999.90;999.90;;;11.10;99.90;;;;;;5117554;27;20055;-71
2023/10/27 00:03:41;;;;;;;1999.90;999.90;;;11.20;99.90;;;;;;5117952;27;20032;-71
2023/10/27 00:06:06;;;;;;;1999.90;999.90;;;11.10;99.90;;;;;;5117278;27;20040;-71
2023/10/27 00:08:32;;;;;;;1999.90;999.90;;;11.10;99.90;;;;;;5116143;28;20086;-71
2023/10/27 00:11:03;;;;;;;1999.90;999.90;;;11.20;99.90;;;;;;5117608;27;20044;-71
2023/10/27 00:13:29;;;;;;;1999.90;999.90;;;11.10;99.90;;;;;;5117945;27;20031;-71
2023/10/27 00:15:54;;;;;;;1999.90;999.90;;;11.10;99.90;;;;;;5117245;27;20066;-71
2023/10/27 00:18:20;;;;;;;1999.90;999.90;;;11.10;99.90;;;;;;5117327;27;20393;-71
2023/10/27 00:20:45;;;;;;;1999.90;999.90;;;11.00;99.90;;;;;;5117512;27;20461;-71
2023/10/27 00:23:11;;;;;;;1999.90;999.90;;;11.00;99.90;;;;;;5117418;27;20032;-71
2023/10/27 00:25:37;;;;;;;1999.90;999.90;;;11.00;99.90;;;;;;5117395;27;20097;-71
2023/10/27 00:28:02;;;;;;;1999.90;999.90;;;11.00;99.90;;;;;;5117084;27;20036;-71
2023/10/27 00:30:28;;;;;;;1999.90;999.90;;;11.10;99.90;;;;;;5117606;27;20050;-71
2023/10/27 00:32:53;;;;;;;1999.90;999.90;;;11.00;99.90;;;;;;5117300;27;20040;-71
2023/10/27 00:35:19;;;;;;;1999.90;999.90;;;11.10;99.90;;;;;;5117217;27;20029;-71
2023/10/27 00:37:44;;;;;;;1999.90;999.90;;;11.10;99.90;;;;;;5117016;27;20082;-71
2023/10/27 00:40:11;;;;;;;1999.90;999.90;;;11.10;99.90;;;;;;5117514;27;20032;-71
2023/10/27 00:42:36;;;;;;;1999.90;999.90;;;11.10;99.90;;;;;;5116780;27;20036;-71
2023/10/27 00:45:03;;;;;;;1999.90;999.90;;;11.10;99.90;;;;;;5117165;27;20504;-71
2023/10/27 00:47:30;;;;;;;1999.90;999.90;;;11.00;99.90;;;;;;5116398;27;20590;-71
2023/10/27 00:49:56;;;;;;;1999.90;999.90;;;11.00;99.90;;;;;;5117058;27;20100;-71
2023/10/27 00:52:24;;;;;;;1999.90;999.90;;;11.00;99.90;;;;;;5115462;28;20044;-71
2023/10/27 00:54:51;;;;;;;1999.90;999.90;;;11.00;99.90;;;;;;5116877;27;20028;-71
2023/10/27 00:57:16;;;;;;;1999.90;999.90;;;11.00;99.90;;;;;;5116211;27;20028;-71
2023/10/27 00:59:43;;;;;;;1999.90;999.90;;;11.00;99.90;;;;;;5115611;28;20025;-71
2023/10/27 01:02:09;;;;;;;1999.90;999.90;;;11.00;99.90;;;;;;5115261;28;20040;-71
2023/10/27 01:04:35;;;;;;;1999.90;999.90;;;11.00;99.90;;;;;;5116695;27;20115;-71
2023/10/27 01:07:01;;;;;;;1999.90;999.90;;;11.00;99.90;;;;;;5116323;27;20036;-72
2023/10/27 01:09:27;;;;;;;1999.90;999.90;;;11.00;99.90;;;;;;5116322;27;20028;-71
2023/10/27 01:11:53;;;;;;;1999.90;999.90;;;11.00;99.90;;;;;;5116606;27;20050;-71
2023/10/27 01:14:19;;;;;;;1999.90;999.90;;;11.00;99.90;;;;;;5116571;27;20028;-71
2023/10/27 01:16:45;;;;;;;1999.90;999.90;;;11.00;99.90;;;;;;5116421;27;20036;-71
2023/10/27 01:19:10;;;;;;;1999.90;999.90;;;10.90;99.90;;;;;;5116672;27;20032;-71
2023/10/27 01:21:36;;;;;;;1999.90;999.90;;;11.00;99.90;;;;;;5115032;28;20123;-71
2023/10/27 01:24:02;;;;;;;1999.90;999.90;;;10.90;99.90;;;;;;5116630;27;20099;-71
2023/10/27 01:26:28;;;;;;;1999.90;999.90;;;11.00;99.90;;;;;;5115994;27;20028;-71
2023/10/27 01:28:54;;;;;;;1999.90;999.90;;;11.00;99.90;;;;;;5115037;28;20024;-71
2023/10/27 01:31:19;;;;;;;1999.90;999.90;;;11.00;99.90;;;;;;5116532;27;20040;-71
2023/10/27 01:33:45;;;;;;;1999.90;999.90;;;10.90;99.90;;;;;;5114952;28;20032;-71
2023/10/27 01:36:10;;;;;;;1999.90;999.90;;;10.90;99.90;;;;;;5114759;27;20043;-71
2023/10/27 01:38:36;;;;;;;1999.90;999.90;;;10.90;99.90;;;;;;5116409;27;20036;-71
2023/10/27 01:41:01;;;;;;;1999.90;999.90;;;10.90;99.90;;;;;;5114921;28;20047;-71
2023/10/27 01:43:27;;;;;;;1999.90;999.90;;;10.90;99.90;;;;;;5115935;27;20035;-71
2023/10/27 01:45:53;;;;;;;1999.90;999.90;;;10.90;99.90;;;;;;5116043;27;20781;-71
2023/10/27 01:48:18;;;;;;;1999.90;999.90;;;10.90;99.90;;;;;;5116336;27;20036;-71
2023/10/27 01:50:44;;;;;;;1999.90;999.90;;;10.90;99.90;;;;;;5115880;27;20036;-71
2023/10/27 01:53:09;;;;;;;1999.90;999.90;;;10.90;99.90;;;;;;5116271;27;20032;-71
2023/10/27 01:55:35;;;;;;;1999.90;999.90;;;10.90;99.90;;;;;;5115968;27;20036;-71
2023/10/27 01:58:02;;;;;;;1999.90;999.90;;;10.90;99.90;;;;;;5115698;27;20044;-71
2023/10/27 02:00:27;;;;;;;1999.90;999.90;;;10.80;99.90;;;;;;5115839;27;20028;-71
2023/10/27 02:02:53;;;;;;;1999.90;999.90;;;10.90;99.90;;;;;;5115989;27;20039;-71
2023/10/27 02:05:19;;;;;;;1999.90;999.90;;;10.80;99.90;;;;;;5116028;27;20047;-71
2023/10/27 02:07:44;;;;;;;1999.90;999.90;;;10.90;99.90;;;;;;5115516;27;20059;-71
2023/10/27 02:10:10;;;;;;;1999.90;999.90;;;10.80;99.90;;;;;;5115783;27;20036;-71
2023/10/27 02:12:35;;;;;;;1999.90;999.90;;;10.80;99.90;;;;;;5115802;27;20040;-71
2023/10/27 02:15:01;;;;;;;1999.90;999.90;;;10.80;99.90;;;;;;5115594;27;20035;-71
2023/10/27 02:17:27;;;;;;;1999.90;999.90;;;10.80;99.90;;;;;;5115477;28;20039;-71
2023/10/27 02:19:54;;;;;;;1999.90;999.90;;;10.80;99.90;;;;;;5115844;27;20575;-71
2023/10/27 02:22:20;;;;;;;1999.90;999.90;;;10.80;99.90;;;;;;5114678;27;20083;-71
2023/10/27 02:24:45;;;;;;;1999.90;999.90;;;10.70;99.90;;;;;;5113936;28;20074;-71
2023/10/27 02:27:11;;;;;;;1999.90;999.90;;;10.70;99.90;;;;;;5115116;27;20105;-71
2023/10/27 02:29:37;;;;;;;1999.90;999.90;;;10.70;99.90;;;;;;5115554;27;20038;-71
2023/10/27 02:32:03;;;;;;;1999.90;999.90;;;10.70;99.90;;;;;;5115553;27;20036;-71
2023/10/27 02:34:28;;;;;;;1999.90;999.90;;;10.70;99.90;;;;;;5115287;27;20530;-71
2023/10/27 02:36:54;;;;;;;1999.90;999.90;;;10.70;99.90;;;;;;5114543;27;20553;-71
2023/10/27 02:39:20;;;;;;;1999.90;999.90;;;10.70;99.90;;;;;;5115325;27;20036;-71
2023/10/27 02:41:45;;;;;;;1999.90;999.90;;;10.70;99.90;;;;;;5115487;27;20085;-71
2023/10/27 02:44:11;;;;;;;1999.90;999.90;;;10.70;99.90;;;;;;5115164;27;20080;-71
2023/10/27 02:46:37;;;;;;;1999.90;999.90;;;10.60;99.90;;;;;;5115026;27;20043;-71
2023/10/27 02:49:03;;;;;;;1999.90;999.90;;;10.60;99.90;;;;;;5115397;27;20467;-71
2023/10/27 02:51:30;;;;;;;1999.90;999.90;;;10.60;99.90;;;;;;5113673;28;20484;-71
2023/10/27 02:53:55;;;;;;;1999.90;999.90;;;10.60;99.90;;;;;;5115101;27;20043;-71
2023/10/27 02:56:21;;;;;;;1999.90;999.90;;;10.60;99.90;;;;;;5114688;27;20032;-71
2023/10/27 02:58:47;;;;;;;1999.90;999.90;;;10.70;99.90;;;;;;5115150;27;20032;-71
2023/10/27 03:01:16;;;;;;;1999.90;999.90;;;10.70;99.90;;;;;;5115224;27;20039;-71
2023/10/27 03:03:43;;;;;;;1999.90;999.90;;;10.70;99.90;;;;;;5115013;27;20032;-71
2023/10/27 03:06:10;;;;;;;1999.90;999.90;;;10.70;99.90;;;;;;5114524;27;20043;-71
2023/10/27 03:08:37;;;;;;;1999.90;999.90;;;10.70;99.90;;;;;;5113571;28;20566;-71
2023/10/27 03:11:02;;;;;;;1999.90;999.90;;;10.60;99.90;;;;;;5114902;27;20044;-71
2023/10/27 03:13:28;;;;;;;1999.90;999.90;;;10.60;99.90;;;;;;5113523;28;20477;-71
2023/10/27 03:15:53;;;;;;;1999.90;999.90;;;10.60;99.90;;;;;;5114504;27;20047;-71
2023/10/27 03:18:19;;;;;;;1999.90;999.90;;;10.60;99.90;;;;;;5114654;27;20097;-71
2023/10/27 03:20:45;;;;;;;1999.90;999.90;;;10.60;99.90;;;;;;5115044;27;20493;-71
2023/10/27 03:23:10;;;;;;;1999.90;999.90;;;10.60;99.90;;;;;;5115017;27;20036;-71
2023/10/27 03:25:36;;;;;;;1999.90;999.90;;;10.60;99.90;;;;;;5114410;27;20095;-71
2023/10/27 03:28:01;;;;;;;1999.90;999.90;;;10.60;99.90;;;;;;5113162;28;20038;-71
2023/10/27 03:30:28;;;;;;;1999.90;999.90;;;10.50;99.90;;;;;;5113061;28;20039;-71
2023/10/27 03:32:54;;;;;;;1999.90;999.90;;;10.50;99.90;;;;;;5116265;27;20039;-71
2023/10/27 03:35:19;;;;;;;1999.90;999.90;;;10.50;99.90;;;;;;5118432;27;20036;-71
2023/10/27 03:37:45;;;;;;;1999.90;999.90;;;10.50;99.90;;;;;;5118055;27;20071;-71
2023/10/27 03:40:11;;;;;;;1999.90;999.90;;;10.40;99.90;;;;;;5118165;27;20555;-71
2023/10/27 03:42:37;;;;;;;1999.90;999.90;;;10.40;99.90;;;;;;5118296;27;20036;-71
2023/10/27 03:45:02;;;;;;;1999.90;999.90;;;10.40;99.90;;;;;;5118365;27;20055;-71
2023/10/27 03:47:28;;;;;;;1999.90;999.90;;;10.40;99.90;;;;;;5117726;27;20041;-71
2023/10/27 03:49:54;;;;;;;1999.90;999.90;;;10.40;99.90;;;;;;5118188;27;20524;-71
2023/10/27 03:52:19;;;;;;;1999.90;999.90;;;10.40;99.90;;;;;;5116456;28;20042;-71
2023/10/27 03:54:45;;;;;;;1999.90;999.90;;;10.40;99.90;;;;;;5116595;28;20401;-71
2023/10/27 03:57:10;;;;;;;1999.90;999.90;;;10.30;99.90;;;;;;5117752;27;20047;-71
2023/10/27 03:59:36;;;;;;;1999.90;999.90;;;10.30;99.90;;;;;;5118126;27;20032;-71
2023/10/27 04:02:01;;;;;;;1999.90;999.90;;;10.30;99.90;;;;;;5118026;27;20036;-71
2023/10/27 04:04:27;;;;;;;1999.90;999.90;;;10.30;99.90;;;;;;5118061;27;20371;-71
2023/10/27 04:06:54;;;;;;;1999.90;999.90;;;10.30;99.90;;;;;;5117151;27;20530;-71
2023/10/27 04:09:21;;;;;;;1999.90;999.90;;;10.30;99.90;;;;;;5116053;28;20036;-71
2023/10/27 04:11:47;;;;;;;1999.90;999.90;;;10.30;99.90;;;;;;5117766;27;20028;-71
2023/10/27 04:14:12;;;;;;;1999.90;999.90;;;10.30;99.90;;;;;;5117931;27;20036;-71
2023/10/27 04:16:38;;;;;;;1999.90;999.90;;;10.20;99.90;;;;;;5117201;27;20486;-71
2023/10/27 04:19:03;;;;;;;1999.90;999.90;;;10.20;99.90;;;;;;5117775;27;20548;-71
2023/10/27 04:21:29;;;;;;;1999.90;999.90;;;10.20;99.90;;;;;;5117835;27;20039;-73
2023/10/27 04:23:55;;;;;;;1999.90;999.90;;;10.10;99.90;;;;;;5117745;27;20504;-72
2023/10/27 04:26:21;;;;;;;1999.90;999.90;;;10.20;99.90;;;;;;5117453;27;20028;-72
2023/10/27 04:28:46;;;;;;;1999.90;999.90;;;10.20;99.90;;;;;;5117265;27;20035;-72
2023/10/27 04:31:12;;;;;;;1999.90;999.90;;;10.20;99.90;;;;;;5117568;27;20048;-72
2023/10/27 04:33:38;;;;;;;1999.90;999.90;;;10.10;99.90;;;;;;5117639;27;20027;-72
2023/10/27 04:36:07;;;;;;;1999.90;999.90;;;10.10;99.90;;;;;;5116517;27;20414;-72
2023/10/27 04:38:32;;;;;;;1999.90;999.90;;;10.10;99.90;;;;;;5117551;27;20129;-71
2023/10/27 04:40:58;;;;;;;1999.90;999.90;;;10.10;99.90;;;;;;5117506;27;20115;-71
2023/10/27 04:43:23;;;;;;;1999.90;999.90;;;10.10;99.90;;;;;;5117151;27;20039;-73
2023/10/27 04:45:49;;;;;;;1999.90;999.90;;;10.00;99.90;;;;;;5116156;27;20036;-71
2023/10/27 04:48:15;;;;;;;1999.90;999.90;;;10.00;99.90;;;;;;5117319;27;20032;-71
2023/10/27 04:50:41;;;;;;;1999.90;999.90;;;10.10;99.90;;;;;;5117239;27;20485;-72
2023/10/27 04:53:07;;;;;;;1999.90;999.90;;;10.10;99.90;;;;;;5117030;27;20117;-71
2023/10/27 04:55:33;;;;;;;1999.90;999.90;;;10.20;99.90;;;;;;5116875;27;20358;-71
2023/10/27 04:57:58;;;;;;;1999.90;999.90;;;10.20;99.90;;;;;;5116893;27;20040;-71
2023/10/27 05:00:24;;;;;;;1999.90;999.90;;;10.20;99.90;;;;;;5117086;27;20400;-71
2023/10/27 05:02:53;;;;;;;1999.90;999.90;;;10.10;99.90;;;;;;5116912;27;20028;-71
2023/10/27 05:05:20;;;;;;;1999.90;999.90;;;10.10;99.90;;;;;;5116851;27;20105;-71
2023/10/27 05:07:46;;;;;;;1999.90;999.90;;;10.10;99.90;;;;;;5115149;28;20039;-71
2023/10/27 05:10:12;;;;;;;1999.90;999.90;;;10.10;99.90;;;;;;5117052;27;20031;-71
2023/10/27 05:12:37;;;;;;;1999.90;999.90;;;10.10;99.90;;;;;;5115211;28;20090;-71
2023/10/27 05:15:03;;;;;;;1999.90;999.90;;;10.00;99.90;;;;;;5116774;27;20032;-73
2023/10/27 05:17:33;;;;;;;1999.90;999.90;;;10.10;99.90;;;;;;5116053;27;20032;-71
2023/10/27 05:19:58;;;;;;;1999.90;999.90;;;10.00;99.90;;;;;;5116541;27;20116;-71
2023/10/27 05:22:24;;;;;;;1999.90;999.90;;;10.10;99.90;;;;;;5115284;28;20027;-71
2023/10/27 05:24:49;;;;;;;1999.90;999.90;;;10.10;99.90;;;;;;5116725;27;20028;-70
2023/10/27 05:27:15;;;;;;;1999.90;999.90;;;10.10;99.90;;;;;;5115802;27;20036;-71
2023/10/27 05:29:40;;;;;;;1999.90;999.90;;;10.00;99.90;;;;;;5116603;27;20036;-71
2023/10/27 05:32:06;;;;;;;1999.90;999.90;;;10.00;99.90;;;;;;5116177;27;20089;-72
2023/10/27 05:34:31;;;;;;;1999.90;999.90;;;9.90;99.90;;;;;;5116594;27;20081;-72
2023/10/27 05:36:57;;;;;;;1999.90;999.90;;;10.00;99.90;;;;;;5129008;22;20056;-67
2023/10/27 05:39:26;;;;;;;1999.90;999.90;;;10.00;99.90;;;;;;5116541;28;20042;-68
2023/10/27 05:41:52;;;;;;;1999.90;999.90;;;10.00;99.90;;;;;;5097937;28;20166;-67
2023/10/27 05:44:17;;;;;;;1999.90;999.90;;;10.00;99.90;;;;;;5116331;28;20512;-67
2023/10/27 05:46:43;;;;;;;1999.90;999.90;;;10.00;99.90;;;;;;5115990;28;20078;-68
2023/10/27 05:49:08;;;;;;;1999.90;999.90;;;10.00;99.90;;;;;;5116364;28;20028;-68
2023/10/27 05:51:35;;;;;;;1999.90;999.90;;;10.00;99.90;;;;;;5116304;28;20111;-67
2023/10/27 05:54:01;;;;;;;1999.90;999.90;;;9.90;99.90;;;;;;5116099;28;20032;-67
2023/10/27 05:56:27;;;;;;;1999.90;999.90;;;9.90;99.90;;;;;;5115730;27;20516;-71
2023/10/27 05:58:53;;;;;;;1999.90;999.90;;;10.00;99.90;;;;;;5116163;28;20098;-67
2023/10/27 06:01:19;;;;;;;1999.90;999.90;;;9.90;99.90;;;;;;5115955;28;20081;-67
2023/10/27 06:03:45;;;;;;;1999.90;999.90;;;10.00;99.90;;;;;;5116073;28;20105;-67
2023/10/27 06:06:11;;;;;;;1999.90;999.90;;;10.00;99.90;;;;;;5115382;28;20451;-67
2023/10/27 06:08:42;;;;;;;1999.90;999.90;;;10.00;99.90;;;;;;5116080;28;20036;-67
2023/10/27 06:11:08;;;;;;;1999.90;999.90;;;10.00;99.90;;;;;;5115980;28;20036;-67
2023/10/27 06:13:33;;;;;;;1999.90;999.90;;;10.00;99.90;;;;;;5115832;28;20036;-67
2023/10/27 06:15:59;;;;;;;1999.90;999.90;;;10.00;99.90;;;;;;5115284;28;20124;-67
2023/10/27 06:18:24;;;;;;;1999.90;999.90;;;10.00;99.90;;;;;;5115578;28;20099;-69
2023/10/27 06:20:50;;;;;;;1999.90;999.90;;;10.00;99.90;;;;;;5096936;28;20056;-69
2023/10/27 06:23:15;;;;;;;1999.90;999.90;;;10.00;99.90;;;;;;5115644;28;20040;-69
2023/10/27 06:25:41;;;;;;;1999.90;999.90;;;10.00;99.90;;;;;;5115321;28;20089;-69
2023/10/27 06:28:06;;;;;;;1999.90;999.90;;;10.00;99.90;;;;;;5115072;28;20473;-69
2023/10/27 06:30:32;;;;;;;1999.90;999.90;;;10.00;99.90;;;;;;5115322;28;20036;-69
2023/10/27 06:32:58;;;;;;;1999.90;999.90;;;10.00;99.90;;;;;;5115242;28;20378;-69
2023/10/27 06:35:23;;;;;;;1999.90;999.90;;;10.00;99.90;;;;;;5115226;28;20412;-69
2023/10/27 06:37:49;;;;;;;1999.90;999.90;;;10.00;99.90;;;;;;5114623;28;20508;-69
2023/10/27 06:40:14;;;;;;;1999.90;999.90;;;10.00;99.90;;;;;;5115460;28;20039;-69
2023/10/27 06:42:40;;;;;;;1999.90;999.90;;;10.00;99.90;;;;;;5115029;28;20039;-69
2023/10/27 06:45:08;;;;;;;1999.90;999.90;;;10.00;99.90;;;;;;5115150;28;20035;-69
2023/10/27 06:47:37;;;;;;;1999.90;999.90;;;10.00;99.90;;;;;;5114669;28;20028;-69
2023/10/27 06:50:04;;;;;;;1999.90;999.90;;;10.00;99.90;;;;;;5115039;28;20028;-69
2023/10/27 06:52:30;;;;;;;1999.90;999.90;;;10.10;99.90;;;;;;5114898;28;20036;-69
2023/10/27 06:54:56;;;;;;;1999.90;999.90;;;10.00;99.90;;;;;;5115102;28;20508;-69
2023/10/27 06:57:22;;;;;;;1999.90;999.90;;;10.10;99.90;;;;;;5114293;28;20040;-69
2023/10/27 06:59:48;;;;;;;1999.90;999.90;;;10.10;99.90;;;;;;5115051;28;20033;-69
2023/10/27 07:02:14;;;;;;;1999.90;999.90;;;10.20;99.90;;;;;;5114902;28;20047;-69
2023/10/27 07:04:40;;;;;;;1999.90;999.90;;;10.20;99.90;;;;;;5096478;28;20575;-69
2023/10/27 07:07:05;;;;;;;1999.90;999.90;;;10.20;99.90;;;;;;5115179;27;20052;-69
2023/10/27 07:09:31;;;;;;;1999.90;999.90;;;10.20;99.90;;;;;;5121716;28;20074;-69
2023/10/27 07:11:59;;;;;;;1999.90;999.90;;;10.20;99.90;;;;;;5121361;28;20501;-69
2023/10/27 07:14:25;;;;;;;1999.90;999.90;;;10.20;99.90;;;;;;5102977;28;20115;-69
2023/10/27 07:16:52;;;;;;;1999.90;999.90;;;10.20;99.90;;;;;;5121036;28;20461;-69
2023/10/27 07:19:18;;;;;;;1999.90;999.90;;;10.20;99.90;;;;;;5121487;28;20508;-69
2023/10/27 07:21:44;;;;;;;1999.90;999.90;;;10.30;99.90;;;;;;5121677;28;20439;-69
2023/10/27 07:24:10;;;;;;;1999.90;999.90;;;10.40;99.90;;;;;;5121643;28;20032;-69
2023/10/27 07:26:36;;;;;;;1999.90;999.90;;;10.40;99.90;;;;;;5120588;28;20028;-69
2023/10/27 07:29:02;;;;;;;1999.90;999.90;;;10.50;99.90;;;;;;5121074;28;20031;-69
2023/10/27 07:31:28;;;;;;;1999.90;999.90;;;10.60;99.90;;;;;;5121628;28;20071;-69
2023/10/27 07:33:55;;;;;;;1999.90;999.90;;;10.60;99.90;;;;;;5121454;28;20059;-69
2023/10/27 07:36:21;;;;;;;1999.90;999.90;;;10.50;99.90;;;;;;5120547;28;20036;-69
2023/10/27 07:38:49;;;;;;;1999.90;999.90;;;10.50;99.90;;;;;;5121623;28;20032;-69
2023/10/27 07:41:15;;;;;;;1999.90;999.90;;;10.50;99.90;;;;;;5121225;28;20028;-69
2023/10/27 07:43:40;;;;;;;1999.90;999.90;;;10.50;99.90;;;;;;5121020;28;20413;-69
2023/10/27 07:46:06;;;;;;;1999.90;999.90;;;10.50;99.90;;;;;;5120420;28;20139;-69
2023/10/27 07:48:32;;;;;;;1999.90;999.90;;;10.50;99.90;;;;;;5121057;28;20032;-70
2023/10/27 07:50:58;;;;;;;1999.90;999.90;;;10.60;99.90;;;;;;5121121;28;20072;-69
2023/10/27 07:53:25;;;;;;;1999.90;999.90;;;10.80;99.90;;;;;;5121511;28;20028;-70
2023/10/27 07:55:51;;;;;;;1999.90;999.90;;;10.80;99.90;;;;;;5120616;28;20489;-70
2023/10/27 07:58:16;;;;;;;1999.90;999.90;;;10.80;99.90;;;;;;5121141;28;20032;-70
2023/10/27 08:00:42;;;;;;;1999.90;999.90;;;10.90;99.90;;;;;;5121229;28;20036;-70
2023/10/27 08:03:07;;;;;;;1999.90;999.90;;;10.90;99.90;;;;;;5121255;28;20036;-70
2023/10/27 08:05:33;;;;;;;1999.90;999.90;;;11.00;99.90;;;;;;5102634;28;20119;-70
2023/10/27 08:07:58;;;;;;;1999.90;999.90;;;11.20;99.90;;;;;;5120251;28;20034;-70
2023/10/27 08:10:24;;;;;;;1999.90;999.90;;;11.30;99.90;;;;;;5120870;28;20028;-70
2023/10/27 08:12:50;;;;;;;1999.90;999.90;;;11.40;99.90;;;;;;5120961;28;20043;-70
2023/10/27 08:15:16;;;;;;;1999.90;999.90;;;11.50;99.90;;;;;;5120712;28;20472;-70
2023/10/27 08:17:42;;;;;;;1999.90;999.90;;;11.70;99.90;;;;;;5120482;28;20036;-70
2023/10/27 08:20:08;;;;;;;1999.90;999.90;;;11.80;99.90;;;;;;5116463;27;20028;-70
2023/10/27 08:22:34;;;;;;;1999.90;999.90;;;12.10;99.90;;;;;;5117673;28;20036;-70
2023/10/27 08:25:00;;;;;;;1999.90;999.90;;;12.10;99.90;;;;;;5117227;28;20563;-70
2023/10/27 08:27:26;;;;;;;1999.90;999.90;;;12.10;99.90;;;;;;5116816;28;20036;-70
2023/10/27 08:29:56;;;;;;;1999.90;999.90;;;12.20;99.90;;;;;;5117111;28;20035;-70
2023/10/27 08:32:22;;;;;;;1999.90;999.90;;;12.30;99.90;;;;;;5117105;28;20181;-70
2023/10/27 08:34:48;;;;;;;1999.90;999.90;;;12.40;99.90;;;;;;5117340;28;20070;-70
2023/10/27 08:37:13;;;;;;;1999.90;999.90;;;12.50;99.90;;;;;;5116008;28;20055;-70
2023/10/27 08:39:39;;;;;;;1999.90;999.90;;;12.50;99.90;;;;;;5116995;28;20062;-70
2023/10/27 08:42:07;;;;;;;1999.90;999.90;;;12.40;99.90;;;;;;5117273;28;20107;-70
2023/10/27 08:44:33;;;;;;;1999.90;999.90;;;12.30;99.90;;;;;;5117022;28;20031;-70
2023/10/27 08:46:59;;;;;;;1999.90;999.90;;;12.20;99.90;;;;;;5116870;28;20035;-70
2023/10/27 08:49:25;;;;;;;1999.90;999.90;;;12.10;99.90;;;;;;5117191;28;20036;-70
2023/10/27 08:51:50;;;;;;;1999.90;999.90;;;12.10;99.90;;;;;;5116627;28;20040;-70
2023/10/27 08:54:16;;;;;;;1999.90;999.90;;;12.10;99.90;;;;;;5116913;28;20538;-70
2023/10/27 08:56:42;;;;;;;1999.90;999.90;;;12.00;99.90;;;;;;5116621;28;20032;-70
2023/10/27 08:59:10;;;;;;;1999.90;999.90;;;12.10;99.90;;;;;;5116963;28;20517;-70
2023/10/27 09:01:36;;;;;;;1999.90;999.90;;;12.00;99.90;;;;;;5116768;28;20028;-70
2023/10/27 09:04:10;;;;;;;1999.90;999.90;;;11.90;99.90;;;;;;5116729;28;20024;-70
2023/10/27 09:06:36;;;;;;;1999.90;999.90;;;12.10;99.90;;;;;;5096991;28;20027;-70
2023/10/27 09:09:02;;;;;;;1999.90;999.90;;;12.10;99.90;;;;;;5116645;28;20032;-70
2023/10/27 09:11:28;;;;;;;1999.90;999.90;;;12.10;99.90;;;;;;5116720;28;20032;-70
2023/10/27 09:13:54;;;;;;;1999.90;999.90;;;12.00;99.90;;;;;;5116828;28;20035;-70
2023/10/27 09:16:25;;;;;;;1999.90;999.90;;;12.10;99.90;;;;;;5116129;28;20040;-70
2023/10/27 09:18:51;;;;;;;1999.90;999.90;;;12.20;99.90;;;;;;5116474;28;20059;-70
2023/10/27 09:21:29;;;;;;;1999.90;999.90;;;12.20;99.90;;;;;;5098042;28;20032;-70
2023/10/27 09:23:55;;;;;;;1999.90;999.90;;;12.30;99.90;;;;;;5116666;28;20031;-70
2023/10/27 09:26:21;;;;;;;1999.90;999.90;;;12.30;99.90;;;;;;5115987;28;20036;-70
2023/10/27 09:28:46;;;;;;;1999.90;999.90;;;12.30;99.90;;;;;;5116361;28;20040;-70
2023/10/27 09:31:12;;;;;;;1999.90;999.90;;;12.30;99.90;;;;;;5115794;27;20075;-70
2023/10/27 09:33:37;;;;;;;1999.90;999.90;;;12.20;99.90;;;;;;5116878;28;20117;-70
2023/10/27 09:36:04;;;;;;;1999.90;999.90;;;12.10;99.90;;;;;;5115467;28;20071;-70
2023/10/27 09:38:30;;;;;;;1999.90;999.90;;;12.20;99.90;;;;;;5116489;28;20512;-71
2023/10/27 09:40:59;;;;;;;1999.90;999.90;;;12.30;99.90;;;;;;5116156;28;20032;-70
2023/10/27 09:43:25;;;;;;;1999.90;999.90;;;12.40;99.90;;;;;;5115977;28;20032;-70
2023/10/27 09:46:00;;;;;;;1999.90;999.90;;;12.40;99.90;;;;;;5115387;28;20038;-70
2023/10/27 09:48:29;;;;;;;1999.90;999.90;;;12.60;99.90;;;;;;5116113;28;20040;-70
2023/10/27 09:51:11;;;;;;;1999.90;999.90;;;12.60;99.90;;;;;;5116014;28;20051;-70
2023/10/27 09:53:37;;;;;;;1999.90;999.90;;;12.40;99.90;;;;;;5115889;28;20036;-70
2023/10/27 09:56:03;;;;;;;1999.90;999.90;;;12.40;99.90;;;;;;5115479;28;20409;-70
2023/10/27 09:58:34;;;;;;;1999.90;999.90;;;12.30;99.90;;;;;;5115775;28;20040;-70
2023/10/27 10:01:00;;;;;;;1999.90;999.90;;;12.30;99.90;;;;;;5116104;28;20482;-70
2023/10/27 10:03:29;;;;;;;1999.90;999.90;;;12.30;99.90;;;;;;5115799;28;20040;-70
2023/10/27 10:06:21;;;;;;;1999.90;999.90;;;12.20;99.90;;;;;;5115121;28;20024;-70
2023/10/27 10:09:11;;;;;;;1999.90;999.90;;;12.20;99.90;;;;;;5097244;28;20119;-70
2023/10/27 10:11:55;;;;;;;1999.90;999.90;;;12.20;99.90;;;;;;5115707;28;20040;-70
2023/10/27 10:14:43;;;;;;;1999.90;999.90;;;12.20;99.90;;;;;;5115375;28;20048;-70
2023/10/27 10:17:09;;;;;;;1999.90;999.90;;;12.30;99.90;;;;;;5115047;28;20121;-70
2023/10/27 10:19:48;;;;;;;1999.90;999.90;;;12.30;99.90;;;;;;5115628;28;20032;-70
2023/10/27 10:22:41;;;;;;;1999.90;999.90;;;12.50;99.90;;;;;;5097046;28;20109;-70
2023/10/27 10:25:25;;;;;;;1999.90;999.90;;;12.50;99.90;;;;;;5115413;28;20032;-70
2023/10/27 10:28:10;;;;;;;1999.90;999.90;;;12.50;99.90;;;;;;5114709;28;20035;-70
2023/10/27 10:30:37;;;;;;;1999.90;999.90;;;12.80;99.90;;;;;;5115413;28;20456;-70
2023/10/27 10:33:24;;;;;;;1999.90;999.90;;;13.00;99.90;;;;;;5096429;28;20040;-70
2023/10/27 10:35:51;;;;;;;1999.90;999.90;;;13.00;99.90;;;;;;5114788;28;20044;-70
2023/10/27 10:38:19;;;;;;;1999.90;999.90;;;13.20;99.90;;;;;;5114974;28;20624;-70
2023/10/27 10:41:01;;;;;;;1999.90;999.90;;;13.20;99.90;;;;;;5115246;28;20451;-70
2023/10/27 10:43:42;;;;;;;1999.90;999.90;;;13.30;99.90;;;;;;5114502;27;20516;-70
2023/10/27 10:46:10;;;;;;;1999.90;999.90;;;13.10;99.90;;;;;;5115055;28;20032;-70
2023/10/27 10:48:45;;;;;;;1999.90;999.90;;;13.20;99.90;;;;;;5115099;28;20032;-70
2023/10/27 10:51:16;;;;;;;1999.90;999.90;;;13.30;99.90;;;;;;5115072;28;20078;-70
2023/10/27 10:53:43;;;;;;;1999.90;999.90;;;13.30;99.90;;;;;;5115339;28;20473;-70
2023/10/27 10:56:09;;;;;;;1999.90;999.90;;;13.20;99.90;;;;;;5114451;28;20039;-70
2023/10/27 10:58:36;;;;;;;1999.90;999.90;;;13.10;99.90;;;;;;5115117;28;20032;-70
2023/10/27 11:01:03;;;;;;;1999.90;999.90;;;12.90;99.90;;;;;;5114988;28;20534;-70
2023/10/27 11:03:36;;;;;;;1999.90;999.90;;;12.60;99.90;;;;;;5114921;28;20055;-70
2023/10/27 11:06:05;;;;;;;1999.90;999.90;;;12.50;99.90;;;;;;5095936;28;20024;-70
2023/10/27 11:08:34;;;;;;;1999.90;999.90;;;12.50;99.90;;;;;;5114880;28;20040;-70
2023/10/27 11:11:14;;;;;;;1999.90;999.90;;;12.40;99.90;;;;;;5114618;28;20055;-70
2023/10/27 11:13:45;;;;;;;1999.90;999.90;;;12.40;99.90;;;;;;5115230;28;20063;-70
2023/10/27 11:16:21;;;;;;;1999.90;999.90;;;12.30;99.90;;;;;;5114504;28;20020;-70
2023/10/27 11:18:49;;;;;;;1999.90;999.90;;;12.30;99.90;;;;;;5114906;28;20039;-70
2023/10/27 11:21:19;;;;;;;1999.90;999.90;;;12.40;99.90;;;;;;5114801;28;20028;-70
2023/10/27 11:23:46;;;;;;;1999.90;999.90;;;12.60;99.90;;;;;;5115002;28;20024;-70
2023/10/27 11:26:11;;;;;;;1999.90;999.90;;;12.70;99.90;;;;;;5114326;28;20032;-70
2023/10/27 11:28:41;;;;;;;1999.90;999.90;;;12.80;99.90;;;;;;5114753;28;20477;-70
2023/10/27 11:31:12;;;;;;;1999.90;999.90;;;12.80;99.90;;;;;;5114526;28;20032;-70
2023/10/27 11:34:08;;;;;;;1999.90;999.90;;;12.90;99.90;;;;;;5114755;28;20035;-70
2023/10/27 11:36:35;;;;;;;1999.90;999.90;;;12.90;99.90;;;;;;5114501;28;20032;-68
2023/10/27 11:39:17;;;;;;;1999.90;999.90;;;13.20;99.90;;;;;;5114860;28;20511;-71
2023/10/27 11:42:03;;;;;;;1999.90;999.90;;;13.20;99.90;;;;;;5114665;28;20120;-68
2023/10/27 11:44:30;;;;;;;1999.90;999.90;;;13.20;99.90;;;;;;5114406;28;20497;-68
2023/10/27 11:47:01;;;;;;;1999.90;999.90;;;13.20;99.90;;;;;;5114025;28;20504;-72
2023/10/27 11:49:27;;;;;;;1999.90;999.90;;;13.20;99.90;;;;;;5114715;28;20105;-68
2023/10/27 11:51:55;;;;;;;1999.90;999.90;;;13.20;99.90;;;;;;5114583;28;20133;-69
2023/10/27 11:54:23;;;;;;;1999.90;999.90;;;13.30;99.90;;;;;;5116725;28;20032;-69
2023/10/27 11:56:48;;;;;;;1999.90;999.90;;;13.30;99.90;;;;;;5117617;28;20036;-71
2023/10/27 11:59:16;;;;;;;1999.90;999.90;;;13.30;99.90;;;;;;5118106;28;20036;-68